Time;durP1;ratioP1;P1;durP2;ratioP2;P2;SDS_P1;SDS_P2;PMS_P1;PMS_P2;Temp;Humidity;BMP_temperature;BMP_pressure;BME280_temperature;BME280_humidity;BME280_pressure;Samples;Min_cycle;Max_cycle;Signal;HPM_P1;HPM_P2
2022/04/11 00:00:50;;;;;;;;;;;;;;;17.80;46.26;99989.22;4996673;28;1910;-58
2022/04/11 00:03:16;;;;;;;;;;;;;;;17.82;46.24;99981.47;4997408;28;838;-59
2022/04/11 00:05:41;;;;;;;;;;;;;;;17.81;46.61;99976.28;4996725;28;728;-61
2022/04/11 00:08:07;;;;;;;;;;;;;;;17.83;46.28;99974.88;4996037;28;1528;-58
2022/04/11 00:10:32;;;;;;;;;;;;;;;17.90;46.23;99971.72;5002953;28;878;-59
2022/04/11 00:13:02;;;;;;;;;;;;;;;17.80;45.79;99967.22;5008686;28;1453;-58
2022/04/11 00:15:27;;;;;;;;;;;;;;;17.70;45.12;99964.66;4998288;28;1444;-60
2022/04/11 00:17:53;;;;;;;;;;;;;;;17.49;43.79;99955.91;5015935;28;747;-61
2022/04/11 00:20:18;;;;;;;;;;;;;;;17.30;42.63;99961.44;5011907;28;1908;-59
2022/04/11 00:22:44;;;;;;;;;;;;;;;17.20;42.00;99965.97;5015550;28;842;-59
2022/04/11 00:25:09;;;;;;;;;;;;;;;16.97;41.22;99973.19;5005648;28;862;-59
2022/04/11 00:27:35;;;;;;;;;;;;;;;16.89;40.81;99968.34;4996713;28;845;-57
2022/04/11 00:30:00;;;;;;;;;;;;;;;16.84;40.13;99971.13;4996646;28;894;-58
2022/04/11 00:32:26;;;;;;;;;;;;;;;16.67;39.77;99977.09;4996933;28;787;-60
2022/04/11 00:34:51;;;;;;;;;;;;;;;16.65;39.95;99976.56;4980649;28;1437;-61
2022/04/11 00:37:17;;;;;;;;;;;;;;;16.85;41.54;99981.00;4996175;28;1448;-61
2022/04/11 00:39:43;;;;;;;;;;;;;;;17.42;44.59;99989.28;4985421;28;1914;-65
2022/04/11 00:42:13;;;;;;;;;;;;;;;17.84;46.18;99989.41;5008735;28;1456;-62
2022/04/11 00:44:39;;;;;;;;;;;;;;;18.18;46.63;99983.63;4999973;28;842;-60
2022/04/11 00:47:04;;;;;;;;;;;;;;;18.45;47.29;99988.34;4985441;28;2275;-59
2022/04/11 00:49:30;;;;;;;;;;;;;;;18.54;47.27;99980.19;5000374;28;1022;-58
2022/04/11 00:51:55;;;;;;;;;;;;;;;18.35;47.11;99990.47;5000425;28;863;-59
2022/04/11 00:54:21;;;;;;;;;;;;;;;18.06;46.05;99986.03;4982519;28;897;-63
2022/04/11 00:56:46;;;;;;;;;;;;;;;17.79;44.95;99993.91;5000165;28;786;-60
2022/04/11 00:59:13;;;;;;;;;;;;;;;17.49;43.26;99980.63;4999750;28;771;-62
2022/04/11 01:01:39;;;;;;;;;;;;;;;17.25;41.87;99978.81;4983193;28;1886;-57
2022/04/11 01:04:05;;;;;;;;;;;;;;;17.07;40.84;99995.00;5000296;28;763;-57
2022/04/11 01:06:30;;;;;;;;;;;;;;;16.90;40.32;99969.94;5000438;28;759;-58
2022/04/11 01:08:57;;;;;;;;;;;;;;;16.62;39.59;99961.53;5000115;28;834;-63
2022/04/11 01:11:24;;;;;;;;;;;;;;;16.60;38.94;99975.50;4985594;28;772;-59
2022/04/11 01:13:49;;;;;;;;;;;;;;;16.48;39.14;99972.38;4982297;28;899;-58
2022/04/11 01:16:24;;;;;;;;;;;;;;;16.53;39.09;99982.47;4982491;28;1265;-59
2022/04/11 01:18:50;;;;;;;;;;;;;;;16.54;39.43;99986.88;4981753;28;823;-58
2022/04/11 01:21:15;;;;;;;;;;;;;;;16.52;39.91;99991.81;4999583;28;1910;-60
2022/04/11 01:23:41;;;;;;;;;;;;;;;16.49;40.21;99978.69;4984814;28;1120;-59
2022/04/11 01:26:07;;;;;;;;;;;;;;;16.48;40.26;99988.03;4999385;28;972;-60
2022/04/11 01:28:33;;;;;;;;;;;;;;;16.51;40.13;99985.53;4982378;28;1352;-58
2022/04/11 01:30:58;;;;;;;;;;;;;;;16.45;40.28;99972.16;4965739;28;1094;-60
2022/04/11 01:33:24;;;;;;;;;;;;;;;16.48;41.04;99974.28;4975959;28;1356;-59
2022/04/11 01:35:49;;;;;;;;;;;;;;;16.63;41.94;99995.25;4998889;28;1079;-59
2022/04/11 01:38:15;;;;;;;;;;;;;;;16.75;42.71;99992.94;4999593;28;1098;-62
2022/04/11 01:40:50;;;;;;;;;;;;;;;16.99;43.87;99992.91;4999236;28;1976;-61
2022/04/11 01:43:16;;;;;;;;;;;;;;;17.04;44.93;99983.78;4981725;28;1121;-62
2022/04/11 01:45:41;;;;;;;;;;;;;;;17.19;45.14;99988.25;4999688;28;1241;-60
2022/04/11 01:48:07;;;;;;;;;;;;;;;17.28;45.19;100000.22;5000014;28;846;-59
2022/04/11 01:50:32;;;;;;;;;;;;;;;17.35;45.47;100005.31;4987917;28;1211;-60
2022/04/11 01:53:07;;;;;;;;;;;;;;;17.40;45.74;99999.75;4999203;28;822;-60
2022/04/11 01:55:32;;;;;;;;;;;;;;;17.46;45.79;99995.81;5017957;28;995;-60
2022/04/11 01:57:58;;;;;;;;;;;;;;;17.47;45.99;100004.88;4999524;28;979;-60
2022/04/11 02:00:24;;;;;;;;;;;;;;;17.51;45.77;100003.16;4999952;28;1906;-60
2022/04/11 02:02:50;;;;;;;;;;;;;;;17.64;45.58;100007.09;5004044;28;906;-60
2022/04/11 02:05:15;;;;;;;;;;;;;;;17.61;45.67;100001.06;4965059;28;1306;-60
2022/04/11 02:07:41;;;;;;;;;;;;;;;17.63;45.84;100009.03;4981967;28;1122;-60
2022/04/11 02:10:08;;;;;;;;;;;;;;;17.72;45.73;100014.66;4986162;28;1337;-60
2022/04/11 02:12:34;;;;;;;;;;;;;;;17.71;45.46;99991.84;4996911;28;1206;-60
2022/04/11 02:15:00;;;;;;;;;;;;;;;17.74;45.44;100017.91;4985079;28;1176;-60
2022/04/11 02:17:25;;;;;;;;;;;;;;;17.74;45.61;100007.75;5017646;28;957;-60
2022/04/11 02:19:51;;;;;;;;;;;;;;;17.75;45.46;99992.88;5017343;28;1906;-60
2022/04/11 02:22:17;;;;;;;;;;;;;;;17.85;45.62;100011.16;4999373;28;1223;-60
2022/04/11 02:24:42;;;;;;;;;;;;;;;17.93;45.31;100004.16;4996600;28;814;-60
2022/04/11 02:27:08;;;;;;;;;;;;;;;17.96;45.61;100009.03;5015341;28;855;-60
2022/04/11 02:29:33;;;;;;;;;;;;;;;17.97;45.30;100005.19;5017147;28;926;-61
2022/04/11 02:31:59;;;;;;;;;;;;;;;17.89;45.48;99986.59;5000051;28;1252;-61
2022/04/11 02:34:25;;;;;;;;;;;;;;;17.94;45.10;100003.03;4999899;28;1084;-60
2022/04/11 02:36:51;;;;;;;;;;;;;;;17.87;45.13;99994.34;4999658;28;1054;-60
2022/04/11 02:39:17;;;;;;;;;;;;;;;17.85;45.21;99991.91;4996786;28;1307;-60
2022/04/11 02:41:42;;;;;;;;;;;;;;;17.76;44.67;99990.94;4989724;28;1969;-65
2022/04/11 02:44:08;;;;;;;;;;;;;;;17.61;44.20;100001.06;4999634;28;1238;-66
2022/04/11 02:46:33;;;;;;;;;;;;;;;17.50;43.44;100005.09;4999148;28;1109;-66
2022/04/11 02:48:59;;;;;;;;;;;;;;;17.33;42.59;100004.81;5017330;28;846;-66
2022/04/11 02:51:33;;;;;;;;;;;;;;;17.13;41.42;100003.19;4985240;28;1389;-67
2022/04/11 02:54:07;;;;;;;;;;;;;;;16.98;41.15;99995.94;4981325;28;1291;-68
2022/04/11 02:56:35;;;;;;;;;;;;;;;16.87;40.66;99997.97;4981021;28;1124;-67
2022/04/11 02:59:02;;;;;;;;;;;;;;;16.79;40.73;100020.59;4980622;28;1181;-67
2022/04/11 03:01:29;;;;;;;;;;;;;;;16.74;40.67;100003.06;4995337;28;1902;-67
2022/04/11 03:03:55;;;;;;;;;;;;;;;16.74;40.47;100000.31;4980908;28;1243;-68
2022/04/11 03:06:25;;;;;;;;;;;;;;;16.91;42.38;100012.78;4988594;28;1003;-66
2022/04/11 03:08:51;;;;;;;;;;;;;;;17.47;44.61;100008.44;4998617;28;1085;-68
2022/04/11 03:11:24;;;;;;;;;;;;;;;17.98;45.51;100008.75;4995721;28;1228;-62
2022/04/11 03:13:50;;;;;;;;;;;;;;;18.21;45.83;100001.47;4999013;28;1305;-60
2022/04/11 03:16:17;;;;;;;;;;;;;;;18.11;45.77;100011.53;4999406;28;1295;-60
2022/04/11 03:18:45;;;;;;;;;;;;;;;17.85;45.31;100024.06;4997612;28;1442;-63
2022/04/11 03:21:10;;;;;;;;;;;;;;;17.50;44.27;100002.34;4994675;28;1967;-62
2022/04/11 03:23:37;;;;;;;;;;;;;;;17.22;43.14;100012.38;4980417;28;1247;-64
2022/04/11 03:26:03;;;;;;;;;;;;;;;17.14;42.26;100024.03;4994651;28;1145;-63
2022/04/11 03:28:32;;;;;;;;;;;;;;;16.92;41.77;100022.66;4998282;28;1443;-63
2022/04/11 03:30:59;;;;;;;;;;;;;;;16.88;41.15;100025.16;4992620;28;1589;-67
2022/04/11 03:33:25;;;;;;;;;;;;;;;16.74;40.61;100016.78;4999110;28;1153;-62
2022/04/11 03:35:51;;;;;;;;;;;;;;;16.70;40.62;100023.19;4998069;28;1232;-64
2022/04/11 03:38:16;;;;;;;;;;;;;;;16.70;40.73;100025.91;4998513;28;1251;-63
2022/04/11 03:40:45;;;;;;;;;;;;;;;16.83;42.02;100024.38;5001998;28;1960;-65
2022/04/11 03:43:12;;;;;;;;;;;;;;;17.12;44.06;100026.25;4979083;28;1205;-64
2022/04/11 03:45:39;;;;;;;;;;;;;;;17.41;45.47;100043.41;4997499;28;815;-63
2022/04/11 03:48:04;;;;;;;;;;;;;;;17.72;46.41;100026.44;4979417;28;1165;-64
2022/04/11 03:50:34;;;;;;;;;;;;;;;17.97;46.40;100016.19;4986773;28;1418;-62
2022/04/11 03:52:59;;;;;;;;;;;;;;;18.18;46.47;100026.84;4992385;28;1355;-63
2022/04/11 03:55:25;;;;;;;;;;;;;;;18.39;46.63;100030.03;4993818;28;1187;-64
2022/04/11 03:57:53;;;;;;;;;;;;;;;18.22;46.70;100033.38;4984650;28;1984;-63
2022/04/11 04:00:18;;;;;;;;;;;;;;;18.06;45.99;100041.91;4997325;28;1909;-61
2022/04/11 04:03:10;;;;;;;;;;;;;;;17.72;45.07;100031.94;4979436;28;1283;-64
2022/04/11 04:05:40;;;;;;;;;;;;;;;17.53;43.77;100044.91;4979676;28;1386;-65
2022/04/11 04:08:07;;;;;;;;;;;;;;;17.28;43.01;100044.16;4979946;28;1329;-65
2022/04/11 04:10:33;;;;;;;;;;;;;;;17.14;42.23;100038.59;4990904;28;1264;-64
2022/04/11 04:12:58;;;;;;;;;;;;;;;17.04;41.63;100045.03;4979260;28;1245;-66
2022/04/11 04:15:24;;;;;;;;;;;;;;;16.89;40.86;100050.72;4979673;28;1160;-64
2022/04/11 04:17:53;;;;;;;;;;;;;;;16.80;40.39;100057.94;4979685;28;1370;-64
2022/04/11 04:20:19;;;;;;;;;;;;;;;16.71;40.33;100061.31;4979416;28;1979;-65
2022/04/11 04:22:44;;;;;;;;;;;;;;;16.63;40.10;100056.47;4971059;28;1252;-65
2022/04/11 04:25:12;;;;;;;;;;;;;;;16.84;41.64;100072.72;4997206;28;1415;-64
2022/04/11 04:27:37;;;;;;;;;;;;;;;17.17;43.65;100064.66;4998167;28;1153;-65
2022/04/11 04:30:05;;;;;;;;;;;;;;;17.51;45.67;100053.44;4989934;28;1164;-65
2022/04/11 04:32:32;;;;;;;;;;;;;;;17.85;46.46;100079.91;4993084;28;983;-65
2022/04/11 04:34:57;;;;;;;;;;;;;;;18.11;46.62;100072.06;4986938;28;1173;-64
2022/04/11 04:37:24;;;;;;;;;;;;;;;18.37;46.50;100073.53;4978942;28;1231;-65
2022/04/11 04:39:52;;;;;;;;;;;;;;;18.52;46.62;100086.22;4980569;28;1989;-65
2022/04/11 04:42:21;;;;;;;;;;;;;;;18.37;47.15;100101.91;5015635;28;825;-66
2022/04/11 04:44:47;;;;;;;;;;;;;;;18.19;46.31;100100.00;4997583;28;1547;-65
2022/04/11 04:47:17;;;;;;;;;;;;;;;17.95;45.66;100109.22;4994282;28;1193;-66
2022/04/11 04:49:43;;;;;;;;;;;;;;;17.71;44.90;100101.84;4994743;28;1271;-65
2022/04/11 04:52:10;;;;;;;;;;;;;;;17.51;43.77;100115.88;4979549;28;1244;-65
2022/04/11 04:54:49;;;;;;;;;;;;;;;17.36;42.43;100117.72;4982533;28;1223;-65
2022/04/11 04:57:15;;;;;;;;;;;;;;;17.21;41.79;100140.69;4997666;28;1101;-65
2022/04/11 04:59:42;;;;;;;;;;;;;;;17.04;41.12;100137.59;4988562;28;1913;-65
2022/04/11 05:02:13;;;;;;;;;;;;;;;16.85;40.41;100126.53;4994846;28;1389;-65
2022/04/11 05:04:39;;;;;;;;;;;;;;;16.78;39.97;100146.09;5005832;28;790;-65
2022/04/11 05:07:05;;;;;;;;;;;;;;;16.66;39.98;100138.25;4979225;28;1341;-65
2022/04/11 05:09:32;;;;;;;;;;;;;;;16.63;40.17;100148.97;4980121;28;1243;-66
2022/04/11 05:11:57;;;;;;;;;;;;;;;16.74;41.40;100150.50;4978680;28;1373;-65
2022/04/11 05:14:25;;;;;;;;;;;;;;;17.17;44.38;100156.13;4994739;28;1334;-65
2022/04/11 05:16:53;;;;;;;;;;;;;;;17.67;46.44;100147.53;4997993;28;1405;-66
2022/04/11 05:19:22;;;;;;;;;;;;;;;18.08;47.21;100143.41;4978196;28;1279;-66
2022/04/11 05:21:48;;;;;;;;;;;;;;;18.32;47.33;100148.78;4978261;28;1910;-66
2022/04/11 05:24:14;;;;;;;;;;;;;;;18.37;47.39;100150.63;4998079;28;750;-66
2022/04/11 05:26:39;;;;;;;;;;;;;;;18.03;46.53;100147.03;4994065;28;1504;-66
2022/04/11 05:29:07;;;;;;;;;;;;;;;17.64;45.41;100137.09;5000962;28;1443;-66
2022/04/11 05:31:33;;;;;;;;;;;;;;;17.44;43.92;100158.25;5001127;28;1145;-66
2022/04/11 05:34:01;;;;;;;;;;;;;;;17.29;42.87;100152.94;5000323;28;1097;-66
2022/04/11 05:36:27;;;;;;;;;;;;;;;17.06;41.98;100155.41;5000792;28;1336;-66
2022/04/11 05:38:52;;;;;;;;;;;;;;;16.95;41.59;100145.66;4997934;28;1231;-66
2022/04/11 05:41:18;;;;;;;;;;;;;;;16.76;41.00;100151.88;5012859;28;1983;-65
2022/04/11 05:43:47;;;;;;;;;;;;;;;16.73;40.59;100155.19;4988348;28;1228;-66
2022/04/11 05:46:15;;;;;;;;;;;;;;;16.58;40.41;100153.41;4981790;28;1157;-66
2022/04/11 05:48:46;;;;;;;;;;;;;;;16.71;40.71;100156.59;4981457;28;1351;-66
2022/04/11 05:51:12;;;;;;;;;;;;;;;16.79;41.84;100147.72;5000565;28;1172;-65
2022/04/11 05:53:37;;;;;;;;;;;;;;;17.29;45.20;100155.69;5018454;28;798;-64
2022/04/11 05:56:04;;;;;;;;;;;;;;;17.64;46.88;100150.84;4984153;28;1157;-66
2022/04/11 05:58:30;;;;;;;;;;;;;;;18.02;47.53;100163.81;4981305;28;1224;-68
2022/04/11 06:00:57;;;;;;;;;;;;;;;18.18;47.77;100131.41;4981723;28;1985;-68
2022/04/11 06:03:23;;;;;;;;;;;;;;;18.38;47.76;100153.06;4976024;28;1299;-67
2022/04/11 06:05:48;;;;;;;;;;;;;;;18.44;47.38;100140.88;4980126;28;1271;-68
2022/04/11 06:08:14;;;;;;;;;;;;;;;18.29;47.19;100161.19;4978268;28;1162;-67
2022/04/11 06:10:43;;;;;;;;;;;;;;;17.92;45.78;100164.78;4987613;28;1203;-67
2022/04/11 06:13:12;;;;;;;;;;;;;;;17.65;44.43;100163.50;4975891;28;1340;-67
2022/04/11 06:15:38;;;;;;;;;;;;;;;17.40;43.29;100168.22;4999136;28;887;-67
2022/04/11 06:18:04;;;;;;;;;;;;;;;17.21;42.27;100192.91;5011545;28;954;-68
2022/04/11 06:20:29;;;;;;;;;;;;;;;17.05;41.48;100189.47;4999903;28;1975;-68
2022/04/11 06:22:55;;;;;;;;;;;;;;;16.90;41.01;100186.91;5000250;28;1120;-68
2022/04/11 06:25:21;;;;;;;;;;;;;;;16.82;40.10;100190.25;4993263;28;1235;-67
2022/04/11 06:27:46;;;;;;;;;;;;;;;16.62;39.77;100207.72;5017895;28;781;-67
2022/04/11 06:30:12;;;;;;;;;;;;;;;16.58;39.71;100202.00;4997856;28;1144;-68
2022/04/11 06:32:41;;;;;;;;;;;;;;;16.59;40.16;100214.59;4999769;28;1201;-67
2022/04/11 06:35:07;;;;;;;;;;;;;;;16.91;42.98;100210.50;4998485;28;1209;-67
2022/04/11 06:37:33;;;;;;;;;;;;;;;17.45;45.95;100220.38;4999754;28;1258;-67
2022/04/11 06:40:01;;;;;;;;;;;;;;;17.77;47.41;100209.81;4991423;28;1973;-67
2022/04/11 06:42:28;;;;;;;;;;;;;;;18.17;47.94;100237.06;4985351;28;1169;-67
2022/04/11 06:44:55;;;;;;;;;;;;;;;18.45;47.87;100229.75;4999682;28;1108;-67
2022/04/11 06:47:25;;;;;;;;;;;;;;;18.46;47.73;100245.97;4999549;28;1290;-67
2022/04/11 06:49:51;;;;;;;;;;;;;;;18.17;46.94;100256.34;4994946;28;1209;-67
2022/04/11 06:52:17;;;;;;;;;;;;;;;17.84;45.75;100265.28;4998370;28;829;-67
2022/04/11 06:54:44;;;;;;;;;;;;;;;17.63;44.46;100275.72;5001465;28;813;-68
2022/04/11 06:57:11;;;;;;;;;;;;;;;17.44;43.48;100281.94;5017238;28;779;-66
2022/04/11 06:59:36;;;;;;;;;;;;;;;17.16;42.38;100294.59;5006886;28;827;-68
2022/04/11 07:02:02;;;;;;;;;;;;;;;16.99;41.39;100311.50;4997724;28;1975;-68
2022/04/11 07:04:27;;;;;;;;;;;;;;;16.81;40.45;100312.19;4997835;28;987;-67
2022/04/11 07:06:52;;;;;;;;;;;;;;;16.67;39.88;100347.69;4997768;28;1228;-67
2022/04/11 07:09:18;;;;;;;;;;;;;;;16.57;39.58;100349.38;5012439;28;780;-67
2022/04/11 07:11:43;;;;;;;;;;;;;;;16.54;40.03;100349.97;5016863;28;771;-67
2022/04/11 07:14:09;;;;;;;;;;;;;;;16.79;42.34;100375.63;5017116;28;799;-67
2022/04/11 07:16:34;;;;;;;;;;;;;;;17.15;44.40;100391.03;5016844;28;754;-67
2022/04/11 07:19:00;;;;;;;;;;;;;;;17.48;46.28;100377.59;5016789;28;819;-67
2022/04/11 07:21:25;;;;;;;;;;;;;;;17.77;47.62;100397.63;5014901;28;1906;-67
2022/04/11 07:23:50;;;;;;;;;;;;;;;18.11;48.12;100413.25;5009513;28;1133;-67
2022/04/11 07:26:16;;;;;;;;;;;;;;;18.35;48.20;100417.09;4996807;28;1232;-67
2022/04/11 07:28:41;;;;;;;;;;;;;;;18.48;47.75;100438.41;4997802;28;1306;-67
2022/04/11 07:31:07;;;;;;;;;;;;;;;18.16;47.51;100433.56;4997516;28;890;-66
2022/04/11 07:33:32;;;;;;;;;;;;;;;17.88;46.16;100441.53;4996852;28;1228;-67
2022/04/11 07:35:58;;;;;;;;;;;;;;;17.66;44.99;100447.53;4995456;28;940;-70
2022/04/11 07:38:23;;;;;;;;;;;;;;;17.49;43.52;100462.50;4997378;28;1058;-66
2022/04/11 07:40:49;;;;;;;;;;;;;;;17.28;42.64;100464.59;5008220;28;1973;-67
2022/04/11 07:43:14;;;;;;;;;;;;;;;17.17;41.75;100468.53;5016253;28;854;-67
2022/04/11 07:45:40;;;;;;;;;;;;;;;16.97;41.10;100473.03;5010175;28;874;-67
2022/04/11 07:48:06;;;;;;;;;;;;;;;16.83;40.61;100471.97;4996576;28;811;-66
2022/04/11 07:50:31;;;;;;;;;;;;;;;16.77;40.11;100480.25;5007968;28;971;-67
2022/04/11 07:52:57;;;;;;;;;;;;;;;16.62;39.78;100468.50;5016079;28;888;-67
2022/04/11 07:55:24;;;;;;;;;;;;;;;16.59;40.02;100489.94;5008993;28;850;-67
2022/04/11 07:57:49;;;;;;;;;;;;;;;16.61;40.96;100475.94;5014412;28;833;-67
2022/04/11 08:00:15;;;;;;;;;;;;;;;16.78;42.03;100489.31;5012910;28;1899;-67
2022/04/11 08:02:41;;;;;;;;;;;;;;;16.87;43.09;100495.00;5015700;28;826;-67
2022/04/11 08:05:07;;;;;;;;;;;;;;;17.10;44.10;100504.56;4998556;28;950;-68
2022/04/11 08:07:32;;;;;;;;;;;;;;;17.23;44.37;100503.09;5010457;28;1140;-67
2022/04/11 08:09:58;;;;;;;;;;;;;;;17.30;45.05;100491.78;4995063;28;870;-67
2022/04/11 08:12:24;;;;;;;;;;;;;;;17.33;45.42;100489.28;5004959;28;1044;-67
2022/04/11 08:14:49;;;;;;;;;;;;;;;17.40;45.93;100503.53;5016085;28;1111;-66
2022/04/11 08:17:15;;;;;;;;;;;;;;;17.47;45.98;100503.19;5010903;28;806;-66
2022/04/11 08:19:40;;;;;;;;;;;;;;;17.56;46.04;100503.44;5009356;28;925;-66
2022/04/11 08:22:06;;;;;;;;;;;;;;;17.65;46.10;100517.38;4996977;28;1914;-67
2022/04/11 08:24:32;;;;;;;;;;;;;;;17.67;46.25;100502.22;4998398;28;953;-66
2022/04/11 08:26:58;;;;;;;;;;;;;;;17.73;46.78;100514.00;5011965;28;902;-66
2022/04/11 08:29:24;;;;;;;;;;;;;;;17.76;46.88;100525.25;5016000;28;907;-65
2022/04/11 08:31:50;;;;;;;;;;;;;;;17.82;46.83;100527.94;5016198;28;1097;-64
2022/04/11 08:34:15;;;;;;;;;;;;;;;17.84;46.67;100514.72;4989870;28;1271;-65
2022/04/11 08:36:40;;;;;;;;;;;;;;;17.92;46.76;100517.72;4987248;28;1263;-64
2022/04/11 08:39:06;;;;;;;;;;;;;;;17.93;46.71;100521.28;4996200;28;1185;-65
2022/04/11 08:41:33;;;;;;;;;;;;;;;17.98;46.78;100524.00;4996978;28;1906;-65
2022/04/11 08:43:59;;;;;;;;;;;;;;;17.92;46.57;100534.22;4996957;28;842;-65
2022/04/11 08:46:25;;;;;;;;;;;;;;;17.73;45.80;100539.56;4996906;28;742;-62
2022/04/11 08:48:50;;;;;;;;;;;;;;;17.47;44.42;100529.88;4982185;28;842;-62
2022/04/11 08:51:16;;;;;;;;;;;;;;;17.31;43.12;100537.41;4997548;28;974;-64
2022/04/11 08:53:42;;;;;;;;;;;;;;;17.07;42.10;100527.91;4996789;28;814;-62
2022/04/11 08:56:07;;;;;;;;;;;;;;;16.96;41.65;100529.06;4997015;28;992;-64
2022/04/11 08:58:33;;;;;;;;;;;;;;;16.84;41.09;100534.03;4979487;28;868;-62
2022/04/11 09:00:58;;;;;;;;;;;;;;;16.79;40.72;100536.78;5000375;28;1906;-63
2022/04/11 09:03:24;;;;;;;;;;;;;;;16.73;40.46;100533.25;4998271;28;954;-62
2022/04/11 09:06:02;;;;;;;;;;;;;;;16.55;40.44;100515.47;5000553;28;903;-62
2022/04/11 09:08:49;;;;;;;;;;;;;;;16.52;40.67;100521.50;5000262;28;834;-62
2022/04/11 09:11:15;;;;;;;;;;;;;;;16.70;42.36;100523.63;5000096;28;857;-62
2022/04/11 09:13:51;;;;;;;;;;;;;;;17.14;44.86;100546.84;4982696;28;883;-62
2022/04/11 09:16:16;;;;;;;;;;;;;;;17.64;46.83;100533.03;5012194;28;1002;-62
2022/04/11 09:18:49;;;;;;;;;;;;;;;18.10;47.47;100529.94;4975328;28;1209;-62
2022/04/11 09:21:15;;;;;;;;;;;;;;;18.43;47.73;100545.84;4999532;28;1902;-62
2022/04/11 09:23:40;;;;;;;;;;;;;;;18.64;48.01;100543.69;4999417;28;1319;-62
2022/04/11 09:26:35;;;;;;;;;;;;;;;18.36;47.60;100534.38;5011518;28;830;-63
2022/04/11 09:29:01;;;;;;;;;;;;;;;17.94;46.81;100544.94;4998803;28;1372;-60
2022/04/11 09:31:27;;;;;;;;;;;;;;;17.71;45.12;100536.31;5016910;28;726;-60
2022/04/11 09:33:52;;;;;;;;;;;;;;;17.38;43.52;100527.72;5018175;28;850;-62
2022/04/11 09:36:20;;;;;;;;;;;;;;;17.17;42.16;100553.69;5001173;28;914;-63
2022/04/11 09:38:55;;;;;;;;;;;;;;;17.01;40.95;100523.56;5018048;28;978;-63
2022/04/11 09:41:25;;;;;;;;;;;;;;;16.82;40.17;100520.59;5013939;28;1910;-62
2022/04/11 09:43:51;;;;;;;;;;;;;;;16.73;40.10;100523.09;5018627;28;925;-63
2022/04/11 09:46:18;;;;;;;;;;;;;;;16.61;39.99;100525.34;5018370;28;1560;-60
2022/04/11 09:48:44;;;;;;;;;;;;;;;16.56;39.76;100530.84;5017892;28;897;-62
2022/04/11 09:51:13;;;;;;;;;;;;;;;16.62;40.31;100531.63;5002845;28;958;-63
2022/04/11 09:53:39;;;;;;;;;;;;;;;16.80;41.95;100533.75;5005531;28;935;-64
2022/04/11 09:56:05;;;;;;;;;;;;;;;17.17;44.17;100534.47;4999080;28;1232;-63
2022/04/11 09:58:31;;;;;;;;;;;;;;;17.36;46.61;100529.13;4981725;28;1117;-63
2022/04/11 10:00:56;;;;;;;;;;;;;;;17.75;47.67;100536.53;4981827;28;1918;-64
2022/04/11 10:03:23;;;;;;;;;;;;;;;17.99;48.25;100536.63;4981666;28;939;-64
2022/04/11 10:05:49;;;;;;;;;;;;;;;18.20;48.50;100536.44;4996847;28;986;-64
2022/04/11 10:08:14;;;;;;;;;;;;;;;18.36;48.35;100526.09;4991533;28;1040;-61
2022/04/11 10:10:41;;;;;;;;;;;;;;;18.16;48.20;100535.38;5005258;28;886;-64
2022/04/11 10:13:10;;;;;;;;;;;;;;;17.90;47.07;100527.34;5018220;28;1003;-63
2022/04/11 10:15:36;;;;;;;;;;;;;;;17.61;45.48;100528.09;5008410;28;857;-62
2022/04/11 10:18:02;;;;;;;;;;;;;;;17.44;44.38;100529.31;4980838;28;889;-64
2022/04/11 10:20:31;;;;;;;;;;;;;;;17.16;43.00;100527.31;5013986;28;1975;-62
2022/04/11 10:22:57;;;;;;;;;;;;;;;16.97;41.68;100514.25;4975332;28;1279;-62
2022/04/11 10:25:23;;;;;;;;;;;;;;;16.87;41.11;100534.31;4980908;28;1367;-62
2022/04/11 10:27:55;;;;;;;;;;;;;;;16.73;40.24;100545.06;4980867;28;1209;-63
2022/04/11 10:30:27;;;;;;;;;;;;;;;16.59;40.14;100555.81;4978658;28;1505;-62
2022/04/11 10:32:54;;;;;;;;;;;;;;;16.54;40.28;100555.00;4994531;28;1003;-60
2022/04/11 10:35:30;;;;;;;;;;;;;;;16.66;41.16;100546.44;4998048;28;1221;-60
2022/04/11 10:37:56;;;;;;;;;;;;;;;16.79;42.23;100553.25;4996280;28;1220;-60
2022/04/11 10:40:21;;;;;;;;;;;;;;;16.95;43.24;100568.63;4994614;28;1910;-61
2022/04/11 10:43:08;;;;;;;;;;;;;;;17.10;44.15;100556.75;4998075;28;1272;-61
2022/04/11 10:45:34;;;;;;;;;;;;;;;17.14;45.21;100566.06;4997251;28;1141;-63
2022/04/11 10:48:00;;;;;;;;;;;;;;;17.26;45.65;100562.97;4994933;28;1209;-63
2022/04/11 10:50:26;;;;;;;;;;;;;;;17.31;46.02;100592.38;4998274;28;960;-64
2022/04/11 10:52:52;;;;;;;;;;;;;;;17.43;46.31;100593.66;4997257;28;1093;-63
2022/04/11 10:55:18;;;;;;;;;;;;;;;17.42;46.46;100572.78;5000271;28;1204;-63
2022/04/11 10:57:44;;;;;;;;;;;;;;;17.59;46.57;100590.81;5002652;28;1109;-62
2022/04/11 11:00:13;;;;;;;;;;;;;;;17.63;46.67;100589.16;4996161;28;1902;-62
2022/04/11 11:02:57;;;;;;;;;;;;;;;17.68;46.57;100591.84;4996974;28;1257;-61
2022/04/11 11:05:38;;;;;;;;;;;;;;;17.66;46.69;100583.06;4984364;28;1271;-61
2022/04/11 11:08:09;;;;;;;;;;;;;;;17.71;46.43;100607.81;4997839;28;863;-64
2022/04/11 11:10:42;;;;;;;;;;;;;;;17.77;46.63;100590.13;4996438;28;1275;-61
2022/04/11 11:13:30;;;;;;;;;;;;;;;17.78;46.38;100601.94;4997947;28;1129;-64
2022/04/11 11:16:15;;;;;;;;;;;;;;;17.83;46.36;100598.38;4992287;28;838;-61
2022/04/11 11:18:50;;;;;;;;;;;;;;;17.84;46.46;100598.06;4992971;28;1920;-61
2022/04/11 11:21:22;;;;;;;;;;;;;;;17.85;46.27;100601.63;4996436;28;1980;-62
2022/04/11 11:24:12;;;;;;;;;;;;;;;17.85;45.97;100618.13;4996203;28;1054;-61
2022/04/11 11:26:40;;;;;;;;;;;;;;;17.59;45.11;100615.56;4994869;28;1146;-62
2022/04/11 11:29:33;;;;;;;;;;;;;;;17.35;43.85;100619.00;4993376;28;1264;-61
2022/04/11 11:32:00;;;;;;;;;;;;;;;17.19;42.56;100611.91;4976191;28;1181;-60
2022/04/11 11:34:29;;;;;;;;;;;;;;;17.02;41.64;100606.78;4997032;28;1300;-61
2022/04/11 11:37:01;;;;;;;;;;;;;;;16.95;41.19;100609.81;4994410;28;1030;-63
2022/04/11 11:39:27;;;;;;;;;;;;;;;16.79;41.30;100610.94;4996408;28;1248;-63
2022/04/11 11:41:53;;;;;;;;;;;;;;;16.75;40.72;100608.75;4978081;28;1918;-63
2022/04/11 11:44:19;;;;;;;;;;;;;;;16.69;40.87;100620.84;4996506;28;1074;-64
2022/04/11 11:46:48;;;;;;;;;;;;;;;16.55;40.67;100620.59;4990563;28;1520;-64
2022/04/11 11:49:13;;;;;;;;;;;;;;;16.43;40.90;100609.91;5000400;28;1197;-63
2022/04/11 11:51:39;;;;;;;;;;;;;;;16.66;41.50;100610.44;4999548;28;1160;-63
2022/04/11 11:54:04;;;;;;;;;;;;;;;16.74;42.75;100612.59;4997312;28;866;-63
2022/04/11 11:56:42;;;;;;;;;;;;;;;16.88;43.36;100603.78;4997559;28;791;-64
2022/04/11 11:59:08;;;;;;;;;;;;;;;17.03;44.14;100611.19;4997010;28;827;-63
2022/04/11 12:01:33;;;;;;;;;;;;;;;17.04;44.66;100597.16;5007632;28;1914;-63
2022/04/11 12:06:42;;;;;;;;;;;;;;;17.34;45.17;100600.84;5016284;28;814;-63
2022/04/11 12:09:08;;;;;;;;;;;;;;;17.41;45.30;100626.09;5014232;28;750;-64
2022/04/11 12:11:34;;;;;;;;;;;;;;;17.37;45.51;100616.78;4980280;28;972;-63
2022/04/11 12:14:00;;;;;;;;;;;;;;;17.47;45.56;100624.16;4990894;28;992;-64
2022/04/11 12:16:26;;;;;;;;;;;;;;;17.55;45.62;100620.81;5016140;28;802;-63
2022/04/11 12:18:54;;;;;;;;;;;;;;;17.55;45.89;100614.50;5015978;28;802;-64
2022/04/11 12:21:29;;;;;;;;;;;;;;;17.62;45.82;100612.25;5015986;28;1895;-63
2022/04/11 12:23:55;;;;;;;;;;;;;;;17.69;45.85;100615.50;5015685;28;818;-63
2022/04/11 12:26:36;;;;;;;;;;;;;;;17.74;45.89;100612.72;5010249;28;958;-63
2022/04/11 12:29:08;;;;;;;;;;;;;;;17.72;46.06;100620.41;5015905;28;796;-63
2022/04/11 12:31:34;;;;;;;;;;;;;;;17.82;46.23;100613.22;5015645;28;825;-64
2022/04/11 12:34:08;;;;;;;;;;;;;;;17.88;46.31;100620.31;5018736;28;819;-63
2022/04/11 12:36:33;;;;;;;;;;;;;;;17.87;46.10;100616.75;5019495;28;978;-63
2022/04/11 12:38:59;;;;;;;;;;;;;;;17.85;46.08;100618.13;5000597;28;1029;-63
2022/04/11 12:41:40;;;;;;;;;;;;;;;17.71;45.64;100613.28;5000921;28;1906;-63
2022/04/11 12:44:07;;;;;;;;;;;;;;;17.44;44.84;100613.72;5000696;28;921;-63
2022/04/11 12:46:33;;;;;;;;;;;;;;;17.24;43.73;100637.44;5000895;28;779;-63
2022/04/11 12:48:58;;;;;;;;;;;;;;;17.06;42.62;100621.59;5003086;28;830;-63
2022/04/11 12:51:24;;;;;;;;;;;;;;;16.88;41.78;100614.75;5004506;28;1030;-63
2022/04/11 12:53:50;;;;;;;;;;;;;;;16.84;41.25;100622.72;5019837;28;802;-63
2022/04/11 12:56:15;;;;;;;;;;;;;;;16.63;41.27;100610.97;5015472;28;814;-64